This is the latest recevied weather packets stored in our database for station/object W4SMH. If no packets are shown the sender has not sent any weather packets the latest 10 day(s).
| Time | Temp. | Humidity | Pressure | Rain* | Wind** | Luminosity | Snow |
|---|---|---|---|---|---|---|---|
| 1777452361 | 10° C | 80% | 1011.5 hPa | 0.25 mm | - | 0 W/m² | - |
| 1777452335 | 10.56° C | 80% | 1011.4 hPa | 0.25 mm | - | 0 W/m² | - |
| 1777452016 | 10.56° C | 79% | 1011.6 hPa | 0.25 mm | - | 0 W/m² | - |
| 1777451312 | 10.56° C | 77% | 1011.7 hPa | 0 mm | - | 0 W/m² | - |
| 1777450840 | 11.11° C | 76% | 1011.5 hPa | 0 mm | - | 0 W/m² | - |
| 1777450806 | 11.11° C | 75% | 1011.7 hPa | 0 mm | - | 0 W/m² | - |
| 1777450749 | 11.11° C | 75% | 1011.5 hPa | 0 mm | - | 0 W/m² | - |
| 1777450345 | 11.11° C | 74% | 1011.5 hPa | 0 mm | - | 0 W/m² | - |
| 1777449560 | 11.11° C | 74% | 1011.4 hPa | 0 mm | - | 0 W/m² | - |
| 1777449505 | 11.11° C | 74% | 1011.4 hPa | 0 mm | - | 0 W/m² | - |
| 1777449220 | 11.11° C | 74% | 1011.4 hPa | 0 mm | - | 0 W/m² | - |
| 1777448656 | 11.11° C | 73% | 1011.3 hPa | 0 mm | - | 0 W/m² | - |
| 1777447678 | 11.11° C | 73% | 1011.3 hPa | 0 mm | - | 0 W/m² | - |
| 1777446830 | 11.67° C | 71% | 1011.3 hPa | 0 mm | - | 0 W/m² | - |
| 1777446804 | 11.67° C | 71% | 1011.3 hPa | 0 mm | - | 0 W/m² | - |
| 1777445687 | 6.67° C | 90% | 1014.5 hPa | 0 mm | - | 0 W/m² | - |
| 1777445630 | 11.67° C | 70% | 1011.4 hPa | 0 mm | - | 0 W/m² | - |
| 1777445602 | 11.67° C | 70% | 1011.3 hPa | 0 mm | - | 0 W/m² | - |
| 1777445033 | 11.67° C | 68% | 1011.4 hPa | 0 mm | - | 0 W/m² | - |
| 1777444543 | 6.67° C | 89% | 1014.5 hPa | 0 mm | - | 0 W/m² | - |
| 1777444392 | 12.22° C | 67% | 1011.3 hPa | 0 mm | - | 0 W/m² | - |
| 1777444187 | 6.67° C | 89% | 1015 hPa | 0 mm | - | 0 W/m² | - |
| 1777444172 | 12.22° C | 66% | 1011.3 hPa | 0 mm | - | 0 W/m² | - |
| 1777443873 | 12.22° C | 67% | 1011.2 hPa | 0 mm | - | 0 W/m² | - |
| 1777443850 | 6.67° C | 88% | 1015.3 hPa | 0 mm | - | 0 W/m² | - |
* Rain latest hour (hover to see other rain measurements)
** Current wind speed in m/s (hover to see current wind gust speed)